Impacts METAR Board INFO
IDs:

KCLE - Cleveland/Hopkins In, OH, US

Updated at: 0302 UTC 18 Dec 2017
Potential Impact None Slight Moderate High
Time17/15Z 17/16Z 17/17Z 17/18Z 17/19Z 17/20Z 17/21Z 17/22Z 17/23Z 18/00Z 18/01Z 18/02Z 18/03Z
VIS7 7 10 10 7 7 10 10 10 10 10 10 10
CIG250 170 140 140 140 110 100 110 120 90 26 23 26
CoverOVCOVCOVCOVCOVCOVCOVCOVCOVCOVCOVCOVCOVC
FltCatVFRVFRVFRVFRVFRVFRVFRVFRVFRVFRMVFRMVFRMVFR
WX--------------------------
WDir000000190180190200180190190
WSpd0 0 0 0 0 0 5 7 7 5 5 9 9
WGst-- -- -- -- -- -- -- -- -- -- -- -- --
Raw hourly METARs
KCLE 171451Z 00000KT 7SM OVC250 M01/M02 A3022 RMK AO2 SLP241 T10061022 53005
KCLE 171551Z 00000KT 7SM OVC170 01/M01 A3021 RMK AO2 SLP238 T00061011
KCLE 171651Z 00000KT 10SM OVC140 02/M01 A3017 RMK AO2 SLP225 T00221006
KCLE 171751Z 00000KT 10SM OVC140 03/M01 A3015 RMK AO2 SLP216 4/002 933002 T00331006 10033 21033 58023
KCLE 171851Z 00000KT 7SM FEW120 OVC140 03/M01 A3011 RMK AO2 SLP206 T00281006
KCLE 171951Z 00000KT 7SM OVC110 03/M01 A3011 RMK AO2 SLP204 T00281006
KCLE 172051Z 19005KT 10SM OVC100 04/M01 A3011 RMK AO2 SLP204 T00391011 56012
KCLE 172151Z 18007KT 10SM OVC110 03/M01 A3011 RMK AO2 SLP204 T00331006
KCLE 172251Z 19007KT 10SM OVC120 03/00 A3009 RMK AO2 SLP199 T00330000
KCLE 172351Z 20005KT 10SM OVC090 03/01 A3009 RMK AO2 SLP199 4/001 T00280006 10039 20028 56006
KCLE 180100Z 18005KT 10SM BKN026 OVC090 03/01 A3010 RMK AO2 T00280006
KCLE 180151Z 19009KT 10SM BKN023 OVC060 03/01 A3010 RMK AO2 SLP200 T00330006
KCLE 180251Z 19009KT 10SM SCT020 BKN026 OVC050 03/01 A3010 RMK AO2 SLP201 T00330011 51003